sensor_id;sensor_type;location;lat;lon;timestamp;P1;durP1;ratioP1;P2;durP2;ratioP2
41927;SDS011;27616;51.420;6.788;2023-06-24T00:00:55;9.85;;;6.38;;
41927;SDS011;27616;51.420;6.788;2023-06-24T00:03:21;9.13;;;6.07;;
41927;SDS011;27616;51.420;6.788;2023-06-24T00:05:47;10.88;;;5.88;;
41927;SDS011;27616;51.420;6.788;2023-06-24T00:08:14;8.77;;;5.25;;
41927;SDS011;27616;51.420;6.788;2023-06-24T00:10:44;10.82;;;5.50;;
41927;SDS011;27616;51.420;6.788;2023-06-24T00:13:11;8.52;;;5.43;;
41927;SDS011;27616;51.420;6.788;2023-06-24T00:15:37;8.38;;;4.80;;
41927;SDS011;27616;51.420;6.788;2023-06-24T00:18:07;9.65;;;4.90;;
41927;SDS011;27616;51.420;6.788;2023-06-24T00:20:37;8.93;;;5.05;;
41927;SDS011;27616;51.420;6.788;2023-06-24T00:23:02;7.68;;;4.63;;
41927;SDS011;27616;51.420;6.788;2023-06-24T00:25:31;10.05;;;5.35;;
41927;SDS011;27616;51.420;6.788;2023-06-24T00:27:57;7.40;;;5.18;;
41927;SDS011;27616;51.420;6.788;2023-06-24T00:30:23;9.98;;;5.38;;
41927;SDS011;27616;51.420;6.788;2023-06-24T00:32:48;10.25;;;5.60;;
41927;SDS011;27616;51.420;6.788;2023-06-24T00:35:14;9.43;;;5.20;;
41927;SDS011;27616;51.420;6.788;2023-06-24T00:37:40;10.52;;;5.68;;
41927;SDS011;27616;51.420;6.788;2023-06-24T00:40:08;10.10;;;5.10;;
41927;SDS011;27616;51.420;6.788;2023-06-24T00:42:40;7.75;;;5.05;;
41927;SDS011;27616;51.420;6.788;2023-06-24T00:45:07;8.25;;;5.65;;
41927;SDS011;27616;51.420;6.788;2023-06-24T00:47:35;8.85;;;4.53;;
41927;SDS011;27616;51.420;6.788;2023-06-24T00:50:01;6.43;;;4.18;;
41927;SDS011;27616;51.420;6.788;2023-06-24T00:52:26;7.97;;;4.43;;
41927;SDS011;27616;51.420;6.788;2023-06-24T00:54:53;8.52;;;4.85;;
41927;SDS011;27616;51.420;6.788;2023-06-24T00:57:21;10.13;;;4.72;;
41927;SDS011;27616;51.420;6.788;2023-06-24T00:59:50;7.50;;;4.45;;
41927;SDS011;27616;51.420;6.788;2023-06-24T01:02:19;8.13;;;4.75;;
41927;SDS011;27616;51.420;6.788;2023-06-24T01:04:48;7.88;;;4.03;;
41927;SDS011;27616;51.420;6.788;2023-06-24T01:07:16;7.53;;;4.57;;
41927;SDS011;27616;51.420;6.788;2023-06-24T01:09:42;6.03;;;4.20;;
41927;SDS011;27616;51.420;6.788;2023-06-24T01:12:08;7.55;;;4.30;;
41927;SDS011;27616;51.420;6.788;2023-06-24T01:14:35;8.45;;;4.40;;
41927;SDS011;27616;51.420;6.788;2023-06-24T01:17:19;8.98;;;4.18;;
41927;SDS011;27616;51.420;6.788;2023-06-24T01:19:54;9.05;;;4.70;;
41927;SDS011;27616;51.420;6.788;2023-06-24T01:22:30;8.40;;;4.30;;
41927;SDS011;27616;51.420;6.788;2023-06-24T01:33:08;9.35;;;4.82;;
41927;SDS011;27616;51.420;6.788;2023-06-24T01:35:39;9.15;;;4.80;;
41927;SDS011;27616;51.420;6.788;2023-06-24T01:38:07;8.95;;;4.30;;
41927;SDS011;27616;51.420;6.788;2023-06-24T01:40:45;7.20;;;4.60;;
41927;SDS011;27616;51.420;6.788;2023-06-24T01:43:13;8.50;;;5.07;;
41927;SDS011;27616;51.420;6.788;2023-06-24T01:45:41;9.43;;;4.85;;
41927;SDS011;27616;51.420;6.788;2023-06-24T01:48:11;8.77;;;4.78;;
41927;SDS011;27616;51.420;6.788;2023-06-24T01:53:24;7.95;;;4.35;;
41927;SDS011;27616;51.420;6.788;2023-06-24T01:55:53;8.27;;;4.82;;
41927;SDS011;27616;51.420;6.788;2023-06-24T01:58:20;7.72;;;4.57;;
41927;SDS011;27616;51.420;6.788;2023-06-24T02:00:47;6.95;;;4.53;;
41927;SDS011;27616;51.420;6.788;2023-06-24T02:03:14;11.40;;;5.03;;
41927;SDS011;27616;51.420;6.788;2023-06-24T02:05:40;7.88;;;4.40;;
41927;SDS011;27616;51.420;6.788;2023-06-24T02:08:08;8.13;;;4.35;;
41927;SDS011;27616;51.420;6.788;2023-06-24T02:10:36;10.23;;;5.28;;
41927;SDS011;27616;51.420;6.788;2023-06-24T02:13:03;8.00;;;4.32;;
41927;SDS011;27616;51.420;6.788;2023-06-24T02:15:29;9.07;;;5.10;;
41927;SDS011;27616;51.420;6.788;2023-06-24T02:17:55;6.68;;;4.75;;
41927;SDS011;27616;51.420;6.788;2023-06-24T02:20:22;8.05;;;4.80;;
41927;SDS011;27616;51.420;6.788;2023-06-24T02:22:52;7.82;;;4.60;;
41927;SDS011;27616;51.420;6.788;2023-06-24T02:25:20;7.57;;;4.43;;
41927;SDS011;27616;51.420;6.788;2023-06-24T02:27:47;10.82;;;4.63;;
41927;SDS011;27616;51.420;6.788;2023-06-24T02:30:13;7.70;;;4.40;;
41927;SDS011;27616;51.420;6.788;2023-06-24T02:32:40;8.00;;;4.57;;
41927;SDS011;27616;51.420;6.788;2023-06-24T02:35:05;9.63;;;4.40;;
41927;SDS011;27616;51.420;6.788;2023-06-24T02:37:33;8.80;;;4.25;;
41927;SDS011;27616;51.420;6.788;2023-06-24T02:39:59;9.18;;;4.40;;
41927;SDS011;27616;51.420;6.788;2023-06-24T02:42:25;9.68;;;5.25;;
41927;SDS011;27616;51.420;6.788;2023-06-24T02:44:51;7.43;;;4.32;;
41927;SDS011;27616;51.420;6.788;2023-06-24T02:47:17;8.70;;;4.60;;
41927;SDS011;27616;51.420;6.788;2023-06-24T02:49:44;8.32;;;4.55;;
41927;SDS011;27616;51.420;6.788;2023-06-24T02:52:11;8.63;;;4.75;;
41927;SDS011;27616;51.420;6.788;2023-06-24T02:54:37;8.40;;;4.03;;
41927;SDS011;27616;51.420;6.788;2023-06-24T02:57:25;7.50;;;3.95;;
41927;SDS011;27616;51.420;6.788;2023-06-24T03:00:14;7.85;;;4.25;;
41927;SDS011;27616;51.420;6.788;2023-06-24T03:03:00;6.38;;;4.10;;
41927;SDS011;27616;51.420;6.788;2023-06-24T03:05:28;7.33;;;4.37;;
41927;SDS011;27616;51.420;6.788;2023-06-24T03:07:55;7.95;;;4.70;;
41927;SDS011;27616;51.420;6.788;2023-06-24T03:10:22;8.73;;;4.38;;
41927;SDS011;27616;51.420;6.788;2023-06-24T03:12:49;7.63;;;3.90;;
41927;SDS011;27616;51.420;6.788;2023-06-24T03:15:16;7.25;;;4.45;;
41927;SDS011;27616;51.420;6.788;2023-06-24T03:17:41;9.15;;;4.47;;
41927;SDS011;27616;51.420;6.788;2023-06-24T03:20:07;7.50;;;4.57;;
41927;SDS011;27616;51.420;6.788;2023-06-24T03:22:33;6.90;;;3.90;;
41927;SDS011;27616;51.420;6.788;2023-06-24T03:25:01;8.10;;;4.47;;
41927;SDS011;27616;51.420;6.788;2023-06-24T03:27:27;6.85;;;4.30;;
41927;SDS011;27616;51.420;6.788;2023-06-24T03:29:53;7.97;;;4.53;;
41927;SDS011;27616;51.420;6.788;2023-06-24T03:32:19;8.20;;;4.57;;
41927;SDS011;27616;51.420;6.788;2023-06-24T03:34:45;8.80;;;4.50;;
41927;SDS011;27616;51.420;6.788;2023-06-24T03:37:11;8.35;;;4.35;;
41927;SDS011;27616;51.420;6.788;2023-06-24T03:39:40;8.55;;;4.65;;
41927;SDS011;27616;51.420;6.788;2023-06-24T03:42:06;9.95;;;4.70;;
41927;SDS011;27616;51.420;6.788;2023-06-24T03:44:31;8.27;;;5.00;;
41927;SDS011;27616;51.420;6.788;2023-06-24T03:46:57;8.15;;;4.40;;
41927;SDS011;27616;51.420;6.788;2023-06-24T03:49:23;8.43;;;4.13;;
41927;SDS011;27616;51.420;6.788;2023-06-24T03:51:49;9.52;;;4.35;;
41927;SDS011;27616;51.420;6.788;2023-06-24T03:54:15;9.52;;;4.25;;
41927;SDS011;27616;51.420;6.788;2023-06-24T03:56:40;8.25;;;4.32;;
41927;SDS011;27616;51.420;6.788;2023-06-24T03:59:06;7.75;;;4.45;;
41927;SDS011;27616;51.420;6.788;2023-06-24T04:01:33;11.00;;;4.57;;
41927;SDS011;27616;51.420;6.788;2023-06-24T04:03:58;8.35;;;4.82;;
41927;SDS011;27616;51.420;6.788;2023-06-24T04:06:24;8.30;;;4.63;;
41927;SDS011;27616;51.420;6.788;2023-06-24T04:08:51;7.43;;;4.55;;
41927;SDS011;27616;51.420;6.788;2023-06-24T04:11:17;8.45;;;4.70;;
41927;SDS011;27616;51.420;6.788;2023-06-24T04:13:44;7.95;;;4.60;;
41927;SDS011;27616;51.420;6.788;2023-06-24T04:16:10;9.88;;;4.47;;
41927;SDS011;27616;51.420;6.788;2023-06-24T04:18:36;6.82;;;4.55;;
41927;SDS011;27616;51.420;6.788;2023-06-24T04:21:05;7.90;;;4.32;;
41927;SDS011;27616;51.420;6.788;2023-06-24T04:23:34;10.13;;;5.47;;
41927;SDS011;27616;51.420;6.788;2023-06-24T04:25:59;9.23;;;4.85;;
41927;SDS011;27616;51.420;6.788;2023-06-24T04:28:25;7.45;;;4.32;;
41927;SDS011;27616;51.420;6.788;2023-06-24T04:30:51;7.97;;;4.80;;
41927;SDS011;27616;51.420;6.788;2023-06-24T04:33:17;8.38;;;4.53;;
41927;SDS011;27616;51.420;6.788;2023-06-24T04:35:43;9.80;;;4.85;;
41927;SDS011;27616;51.420;6.788;2023-06-24T04:38:10;8.13;;;4.75;;
41927;SDS011;27616;51.420;6.788;2023-06-24T04:40:35;10.57;;;5.03;;
41927;SDS011;27616;51.420;6.788;2023-06-24T04:43:02;8.43;;;5.30;;
41927;SDS011;27616;51.420;6.788;2023-06-24T04:45:27;11.13;;;4.75;;
41927;SDS011;27616;51.420;6.788;2023-06-24T04:47:53;8.30;;;4.50;;
41927;SDS011;27616;51.420;6.788;2023-06-24T04:50:19;9.98;;;5.13;;
41927;SDS011;27616;51.420;6.788;2023-06-24T04:52:44;9.20;;;4.95;;
41927;SDS011;27616;51.420;6.788;2023-06-24T04:55:10;8.88;;;5.60;;
41927;SDS011;27616;51.420;6.788;2023-06-24T04:57:35;9.35;;;5.00;;
41927;SDS011;27616;51.420;6.788;2023-06-24T05:00:02;9.20;;;5.10;;
41927;SDS011;27616;51.420;6.788;2023-06-24T05:02:28;9.85;;;5.15;;
41927;SDS011;27616;51.420;6.788;2023-06-24T05:04:53;11.65;;;5.40;;
41927;SDS011;27616;51.420;6.788;2023-06-24T05:07:19;12.25;;;5.93;;
41927;SDS011;27616;51.420;6.788;2023-06-24T05:09:46;10.23;;;5.20;;
41927;SDS011;27616;51.420;6.788;2023-06-24T05:12:12;10.65;;;5.60;;
41927;SDS011;27616;51.420;6.788;2023-06-24T05:14:38;10.82;;;5.63;;
41927;SDS011;27616;51.420;6.788;2023-06-24T05:17:04;10.30;;;5.55;;
41927;SDS011;27616;51.420;6.788;2023-06-24T05:19:30;9.05;;;5.15;;
41927;SDS011;27616;51.420;6.788;2023-06-24T05:21:55;8.82;;;5.55;;
41927;SDS011;27616;51.420;6.788;2023-06-24T05:24:21;10.80;;;5.82;;
41927;SDS011;27616;51.420;6.788;2023-06-24T05:26:48;10.60;;;5.97;;
41927;SDS011;27616;51.420;6.788;2023-06-24T05:29:14;11.00;;;5.57;;
41927;SDS011;27616;51.420;6.788;2023-06-24T05:31:40;10.07;;;6.05;;
41927;SDS011;27616;51.420;6.788;2023-06-24T05:34:06;10.45;;;5.80;;
41927;SDS011;27616;51.420;6.788;2023-06-24T05:36:32;11.57;;;6.57;;
41927;SDS011;27616;51.420;6.788;2023-06-24T05:38:58;9.75;;;5.57;;
41927;SDS011;27616;51.420;6.788;2023-06-24T05:41:24;11.25;;;6.20;;
41927;SDS011;27616;51.420;6.788;2023-06-24T05:44:00;9.80;;;6.18;;
41927;SDS011;27616;51.420;6.788;2023-06-24T05:46:29;9.45;;;5.53;;
41927;SDS011;27616;51.420;6.788;2023-06-24T05:48:55;10.13;;;6.22;;
41927;SDS011;27616;51.420;6.788;2023-06-24T05:51:21;11.68;;;7.15;;
41927;SDS011;27616;51.420;6.788;2023-06-24T05:53:46;16.25;;;9.23;;
41927;SDS011;27616;51.420;6.788;2023-06-24T05:56:12;16.92;;;10.73;;
41927;SDS011;27616;51.420;6.788;2023-06-24T05:58:38;13.27;;;7.50;;
41927;SDS011;27616;51.420;6.788;2023-06-24T06:01:03;13.05;;;7.68;;
41927;SDS011;27616;51.420;6.788;2023-06-24T06:03:29;16.63;;;8.98;;
41927;SDS011;27616;51.420;6.788;2023-06-24T06:05:56;14.95;;;8.02;;
41927;SDS011;27616;51.420;6.788;2023-06-24T06:08:21;11.43;;;6.63;;
41927;SDS011;27616;51.420;6.788;2023-06-24T06:10:47;14.20;;;7.90;;
41927;SDS011;27616;51.420;6.788;2023-06-24T06:13:12;12.35;;;7.82;;
41927;SDS011;27616;51.420;6.788;2023-06-24T06:15:38;15.40;;;8.32;;
41927;SDS011;27616;51.420;6.788;2023-06-24T06:18:04;20.50;;;10.77;;
41927;SDS011;27616;51.420;6.788;2023-06-24T06:20:29;19.67;;;12.13;;
41927;SDS011;27616;51.420;6.788;2023-06-24T06:22:55;16.52;;;9.00;;
41927;SDS011;27616;51.420;6.788;2023-06-24T06:25:21;13.48;;;8.60;;
41927;SDS011;27616;51.420;6.788;2023-06-24T06:27:46;19.17;;;10.85;;
41927;SDS011;27616;51.420;6.788;2023-06-24T06:30:12;13.98;;;8.35;;
41927;SDS011;27616;51.420;6.788;2023-06-24T06:32:39;21.20;;;11.60;;
41927;SDS011;27616;51.420;6.788;2023-06-24T06:35:04;14.63;;;9.52;;
41927;SDS011;27616;51.420;6.788;2023-06-24T06:37:30;13.88;;;8.30;;
41927;SDS011;27616;51.420;6.788;2023-06-24T06:39:56;14.60;;;8.85;;
41927;SDS011;27616;51.420;6.788;2023-06-24T06:42:21;12.18;;;7.85;;
41927;SDS011;27616;51.420;6.788;2023-06-24T06:44:47;12.82;;;8.00;;
41927;SDS011;27616;51.420;6.788;2023-06-24T06:47:12;12.50;;;8.45;;
41927;SDS011;27616;51.420;6.788;2023-06-24T06:49:38;19.88;;;12.25;;
41927;SDS011;27616;51.420;6.788;2023-06-24T06:52:04;15.95;;;10.75;;
41927;SDS011;27616;51.420;6.788;2023-06-24T06:54:30;14.88;;;9.75;;
41927;SDS011;27616;51.420;6.788;2023-06-24T06:57:00;16.90;;;10.65;;
41927;SDS011;27616;51.420;6.788;2023-06-24T06:59:29;17.30;;;11.35;;
41927;SDS011;27616;51.420;6.788;2023-06-24T07:01:57;15.43;;;9.57;;
41927;SDS011;27616;51.420;6.788;2023-06-24T07:04:23;17.23;;;9.63;;
41927;SDS011;27616;51.420;6.788;2023-06-24T07:06:49;15.13;;;9.70;;
41927;SDS011;27616;51.420;6.788;2023-06-24T07:09:14;17.02;;;10.07;;
41927;SDS011;27616;51.420;6.788;2023-06-24T07:11:43;16.63;;;10.23;;
41927;SDS011;27616;51.420;6.788;2023-06-24T07:14:08;22.30;;;11.63;;
41927;SDS011;27616;51.420;6.788;2023-06-24T07:16:34;16.50;;;9.85;;
41927;SDS011;27616;51.420;6.788;2023-06-24T07:19:00;21.58;;;13.10;;
41927;SDS011;27616;51.420;6.788;2023-06-24T07:21:26;20.98;;;12.35;;
41927;SDS011;27616;51.420;6.788;2023-06-24T07:23:52;17.77;;;11.23;;
41927;SDS011;27616;51.420;6.788;2023-06-24T07:26:17;17.55;;;11.23;;
41927;SDS011;27616;51.420;6.788;2023-06-24T07:28:43;16.33;;;10.05;;
41927;SDS011;27616;51.420;6.788;2023-06-24T07:31:08;17.80;;;10.88;;
41927;SDS011;27616;51.420;6.788;2023-06-24T07:33:34;14.65;;;9.23;;
41927;SDS011;27616;51.420;6.788;2023-06-24T07:36:00;17.35;;;11.15;;
41927;SDS011;27616;51.420;6.788;2023-06-24T07:38:27;16.27;;;10.43;;
41927;SDS011;27616;51.420;6.788;2023-06-24T07:40:53;18.00;;;9.87;;
41927;SDS011;27616;51.420;6.788;2023-06-24T07:43:19;14.63;;;9.60;;
41927;SDS011;27616;51.420;6.788;2023-06-24T07:45:44;18.15;;;9.73;;
41927;SDS011;27616;51.420;6.788;2023-06-24T07:48:10;18.63;;;10.65;;
41927;SDS011;27616;51.420;6.788;2023-06-24T07:50:36;19.42;;;11.77;;
41927;SDS011;27616;51.420;6.788;2023-06-24T07:53:02;14.85;;;9.23;;
41927;SDS011;27616;51.420;6.788;2023-06-24T07:55:28;20.05;;;12.27;;
41927;SDS011;27616;51.420;6.788;2023-06-24T07:57:54;16.42;;;10.27;;
41927;SDS011;27616;51.420;6.788;2023-06-24T08:00:19;16.33;;;8.85;;
41927;SDS011;27616;51.420;6.788;2023-06-24T08:02:45;9.10;;;5.82;;
41927;SDS011;27616;51.420;6.788;2023-06-24T08:05:10;11.80;;;7.45;;
41927;SDS011;27616;51.420;6.788;2023-06-24T08:07:37;11.85;;;7.05;;
41927;SDS011;27616;51.420;6.788;2023-06-24T08:10:03;9.57;;;6.38;;
41927;SDS011;27616;51.420;6.788;2023-06-24T08:12:29;12.20;;;7.25;;
41927;SDS011;27616;51.420;6.788;2023-06-24T08:14:56;10.93;;;5.60;;
41927;SDS011;27616;51.420;6.788;2023-06-24T08:17:22;9.70;;;5.93;;
41927;SDS011;27616;51.420;6.788;2023-06-24T08:19:47;10.43;;;5.97;;
41927;SDS011;27616;51.420;6.788;2023-06-24T08:22:13;8.10;;;5.03;;
41927;SDS011;27616;51.420;6.788;2023-06-24T08:24:39;7.47;;;5.30;;
41927;SDS011;27616;51.420;6.788;2023-06-24T08:27:05;11.77;;;6.70;;
41927;SDS011;27616;51.420;6.788;2023-06-24T08:29:31;11.27;;;7.07;;
41927;SDS011;27616;51.420;6.788;2023-06-24T08:31:56;11.32;;;6.55;;
41927;SDS011;27616;51.420;6.788;2023-06-24T08:34:22;11.82;;;6.78;;
41927;SDS011;27616;51.420;6.788;2023-06-24T08:36:48;10.50;;;6.25;;
41927;SDS011;27616;51.420;6.788;2023-06-24T08:39:13;10.52;;;4.70;;
41927;SDS011;27616;51.420;6.788;2023-06-24T08:41:39;9.40;;;5.57;;
41927;SDS011;27616;51.420;6.788;2023-06-24T08:44:04;9.45;;;4.72;;
41927;SDS011;27616;51.420;6.788;2023-06-24T08:46:30;8.15;;;4.90;;
41927;SDS011;27616;51.420;6.788;2023-06-24T08:52:11;12.57;;;6.43;;
41927;SDS011;27616;51.420;6.788;2023-06-24T08:54:38;8.52;;;5.45;;
41927;SDS011;27616;51.420;6.788;2023-06-24T08:57:06;10.63;;;5.95;;
41927;SDS011;27616;51.420;6.788;2023-06-24T08:59:36;9.25;;;4.30;;
41927;SDS011;27616;51.420;6.788;2023-06-24T09:02:02;10.55;;;5.90;;
41927;SDS011;27616;51.420;6.788;2023-06-24T09:04:27;10.43;;;6.15;;
41927;SDS011;27616;51.420;6.788;2023-06-24T09:06:53;8.70;;;4.20;;
41927;SDS011;27616;51.420;6.788;2023-06-24T09:09:19;7.35;;;3.95;;
41927;SDS011;27616;51.420;6.788;2023-06-24T09:14:38;9.73;;;5.30;;
41927;SDS011;27616;51.420;6.788;2023-06-24T09:17:05;8.93;;;4.45;;
41927;SDS011;27616;51.420;6.788;2023-06-24T09:19:31;7.85;;;4.32;;
41927;SDS011;27616;51.420;6.788;2023-06-24T09:24:34;7.75;;;3.70;;
41927;SDS011;27616;51.420;6.788;2023-06-24T09:27:00;5.95;;;3.35;;
41927;SDS011;27616;51.420;6.788;2023-06-24T09:29:27;5.15;;;2.83;;
41927;SDS011;27616;51.420;6.788;2023-06-24T09:31:54;7.93;;;4.50;;
41927;SDS011;27616;51.420;6.788;2023-06-24T09:34:22;5.85;;;3.25;;
41927;SDS011;27616;51.420;6.788;2023-06-24T09:36:57;7.43;;;3.97;;
41927;SDS011;27616;51.420;6.788;2023-06-24T09:39:24;7.57;;;4.45;;
41927;SDS011;27616;51.420;6.788;2023-06-24T09:41:55;6.30;;;3.67;;
41927;SDS011;27616;51.420;6.788;2023-06-24T09:44:21;8.07;;;4.35;;
41927;SDS011;27616;51.420;6.788;2023-06-24T09:46:47;6.65;;;3.45;;
41927;SDS011;27616;51.420;6.788;2023-06-24T09:49:12;7.50;;;3.85;;
41927;SDS011;27616;51.420;6.788;2023-06-24T09:51:39;10.02;;;6.05;;
41927;SDS011;27616;51.420;6.788;2023-06-24T09:54:08;7.00;;;4.30;;
41927;SDS011;27616;51.420;6.788;2023-06-24T09:56:35;6.45;;;3.45;;
41927;SDS011;27616;51.420;6.788;2023-06-24T09:59:05;4.27;;;2.50;;
41927;SDS011;27616;51.420;6.788;2023-06-24T10:01:41;7.25;;;2.75;;
41927;SDS011;27616;51.420;6.788;2023-06-24T10:04:09;5.50;;;3.33;;
41927;SDS011;27616;51.420;6.788;2023-06-24T10:06:40;8.55;;;4.63;;
41927;SDS011;27616;51.420;6.788;2023-06-24T10:09:06;7.88;;;4.03;;
41927;SDS011;27616;51.420;6.788;2023-06-24T10:11:32;6.72;;;3.50;;
41927;SDS011;27616;51.420;6.788;2023-06-24T10:13:57;5.43;;;2.70;;
41927;SDS011;27616;51.420;6.788;2023-06-24T10:16:23;6.22;;;3.50;;
41927;SDS011;27616;51.420;6.788;2023-06-24T10:18:48;6.22;;;3.63;;
41927;SDS011;27616;51.420;6.788;2023-06-24T10:21:14;7.60;;;3.95;;
41927;SDS011;27616;51.420;6.788;2023-06-24T10:26:10;5.05;;;2.80;;
41927;SDS011;27616;51.420;6.788;2023-06-24T10:29:20;5.90;;;3.40;;
41927;SDS011;27616;51.420;6.788;2023-06-24T10:31:52;4.80;;;2.35;;
41927;SDS011;27616;51.420;6.788;2023-06-24T10:36:54;3.97;;;2.03;;
41927;SDS011;27616;51.420;6.788;2023-06-24T10:39:47;5.57;;;3.08;;
41927;SDS011;27616;51.420;6.788;2023-06-24T10:47:38;4.68;;;2.67;;
41927;SDS011;27616;51.420;6.788;2023-06-24T10:50:05;6.77;;;3.00;;
41927;SDS011;27616;51.420;6.788;2023-06-24T10:52:32;5.50;;;2.88;;
41927;SDS011;27616;51.420;6.788;2023-06-24T10:55:02;5.40;;;2.78;;
41927;SDS011;27616;51.420;6.788;2023-06-24T10:57:28;4.97;;;2.45;;
41927;SDS011;27616;51.420;6.788;2023-06-24T10:59:55;4.65;;;2.50;;
41927;SDS011;27616;51.420;6.788;2023-06-24T11:02:23;6.53;;;2.95;;
41927;SDS011;27616;51.420;6.788;2023-06-24T11:04:53;4.40;;;2.55;;
41927;SDS011;27616;51.420;6.788;2023-06-24T11:07:21;5.32;;;2.88;;
41927;SDS011;27616;51.420;6.788;2023-06-24T11:09:58;4.57;;;2.58;;
41927;SDS011;27616;51.420;6.788;2023-06-24T11:12:27;5.10;;;2.40;;
41927;SDS011;27616;51.420;6.788;2023-06-24T11:14:59;4.50;;;2.40;;
41927;SDS011;27616;51.420;6.788;2023-06-24T11:17:29;5.53;;;2.63;;
41927;SDS011;27616;51.420;6.788;2023-06-24T11:19:55;4.22;;;2.10;;
41927;SDS011;27616;51.420;6.788;2023-06-24T11:22:23;4.88;;;2.60;;
41927;SDS011;27616;51.420;6.788;2023-06-24T11:24:49;4.90;;;2.30;;
41927;SDS011;27616;51.420;6.788;2023-06-24T11:27:15;5.15;;;2.40;;
41927;SDS011;27616;51.420;6.788;2023-06-24T11:29:41;5.88;;;2.63;;
41927;SDS011;27616;51.420;6.788;2023-06-24T11:32:07;5.13;;;2.97;;
41927;SDS011;27616;51.420;6.788;2023-06-24T11:34:34;4.15;;;2.30;;
41927;SDS011;27616;51.420;6.788;2023-06-24T11:37:12;5.28;;;2.85;;
41927;SDS011;27616;51.420;6.788;2023-06-24T11:39:39;4.95;;;2.53;;
41927;SDS011;27616;51.420;6.788;2023-06-24T11:42:06;5.13;;;2.33;;
41927;SDS011;27616;51.420;6.788;2023-06-24T11:44:35;6.97;;;3.72;;
41927;SDS011;27616;51.420;6.788;2023-06-24T11:47:07;5.28;;;3.25;;
41927;SDS011;27616;51.420;6.788;2023-06-24T11:49:52;4.22;;;2.67;;
41927;SDS011;27616;51.420;6.788;2023-06-24T11:52:32;5.38;;;2.60;;
41927;SDS011;27616;51.420;6.788;2023-06-24T11:55:03;5.05;;;2.78;;
41927;SDS011;27616;51.420;6.788;2023-06-24T12:00:13;4.22;;;2.72;;
41927;SDS011;27616;51.420;6.788;2023-06-24T12:02:40;6.72;;;2.40;;
41927;SDS011;27616;51.420;6.788;2023-06-24T12:05:05;3.53;;;2.05;;
41927;SDS011;27616;51.420;6.788;2023-06-24T12:07:31;4.32;;;2.80;;
41927;SDS011;27616;51.420;6.788;2023-06-24T12:09:56;4.82;;;2.72;;
41927;SDS011;27616;51.420;6.788;2023-06-24T12:12:22;2.83;;;1.85;;
41927;SDS011;27616;51.420;6.788;2023-06-24T12:14:48;4.07;;;2.60;;
41927;SDS011;27616;51.420;6.788;2023-06-24T12:17:13;5.43;;;2.75;;
41927;SDS011;27616;51.420;6.788;2023-06-24T12:19:39;4.53;;;2.85;;
41927;SDS011;27616;51.420;6.788;2023-06-24T12:22:04;4.78;;;2.58;;
41927;SDS011;27616;51.420;6.788;2023-06-24T12:24:30;4.68;;;2.60;;
41927;SDS011;27616;51.420;6.788;2023-06-24T12:26:56;4.10;;;2.28;;
41927;SDS011;27616;51.420;6.788;2023-06-24T12:29:21;5.05;;;2.38;;
41927;SDS011;27616;51.420;6.788;2023-06-24T12:31:47;5.85;;;3.08;;
41927;SDS011;27616;51.420;6.788;2023-06-24T12:34:12;4.38;;;2.53;;
41927;SDS011;27616;51.420;6.788;2023-06-24T12:36:38;2.97;;;1.90;;
41927;SDS011;27616;51.420;6.788;2023-06-24T12:39:04;6.15;;;3.80;;
41927;SDS011;27616;51.420;6.788;2023-06-24T12:41:29;5.05;;;3.00;;
41927;SDS011;27616;51.420;6.788;2023-06-24T12:43:55;4.72;;;1.85;;
41927;SDS011;27616;51.420;6.788;2023-06-24T12:46:20;3.80;;;2.05;;
41927;SDS011;27616;51.420;6.788;2023-06-24T12:48:46;4.28;;;2.30;;
41927;SDS011;27616;51.420;6.788;2023-06-24T12:51:11;3.85;;;2.60;;
41927;SDS011;27616;51.420;6.788;2023-06-24T12:53:37;7.15;;;4.20;;
41927;SDS011;27616;51.420;6.788;2023-06-24T12:56:03;4.30;;;2.75;;
41927;SDS011;27616;51.420;6.788;2023-06-24T12:58:28;3.42;;;1.90;;
41927;SDS011;27616;51.420;6.788;2023-06-24T13:00:54;5.38;;;2.40;;
41927;SDS011;27616;51.420;6.788;2023-06-24T13:03:19;5.10;;;2.88;;
41927;SDS011;27616;51.420;6.788;2023-06-24T13:05:45;4.65;;;2.65;;
41927;SDS011;27616;51.420;6.788;2023-06-24T13:08:11;4.65;;;2.30;;
41927;SDS011;27616;51.420;6.788;2023-06-24T13:10:37;4.03;;;2.20;;
41927;SDS011;27616;51.420;6.788;2023-06-24T13:13:03;3.92;;;1.77;;
41927;SDS011;27616;51.420;6.788;2023-06-24T13:15:29;3.85;;;2.20;;
41927;SDS011;27616;51.420;6.788;2023-06-24T13:17:55;3.10;;;1.83;;
41927;SDS011;27616;51.420;6.788;2023-06-24T13:20:20;3.97;;;2.10;;
41927;SDS011;27616;51.420;6.788;2023-06-24T13:22:46;4.97;;;2.45;;
41927;SDS011;27616;51.420;6.788;2023-06-24T13:25:12;2.60;;;1.60;;
41927;SDS011;27616;51.420;6.788;2023-06-24T13:27:37;3.10;;;1.92;;
41927;SDS011;27616;51.420;6.788;2023-06-24T13:30:03;3.50;;;2.05;;
41927;SDS011;27616;51.420;6.788;2023-06-24T13:32:29;4.28;;;2.05;;
41927;SDS011;27616;51.420;6.788;2023-06-24T13:34:55;3.50;;;1.90;;
41927;SDS011;27616;51.420;6.788;2023-06-24T13:37:21;3.75;;;2.17;;
41927;SDS011;27616;51.420;6.788;2023-06-24T13:39:46;3.50;;;1.70;;
41927;SDS011;27616;51.420;6.788;2023-06-24T13:42:12;3.13;;;1.55;;
41927;SDS011;27616;51.420;6.788;2023-06-24T13:44:38;3.58;;;1.90;;
41927;SDS011;27616;51.420;6.788;2023-06-24T13:47:04;3.67;;;1.83;;
41927;SDS011;27616;51.420;6.788;2023-06-24T13:49:30;3.80;;;1.70;;
41927;SDS011;27616;51.420;6.788;2023-06-24T13:51:55;4.65;;;2.50;;
41927;SDS011;27616;51.420;6.788;2023-06-24T13:54:21;4.43;;;2.20;;
41927;SDS011;27616;51.420;6.788;2023-06-24T13:56:47;3.53;;;2.00;;
41927;SDS011;27616;51.420;6.788;2023-06-24T13:59:12;3.80;;;2.30;;
41927;SDS011;27616;51.420;6.788;2023-06-24T14:01:38;2.97;;;1.50;;
41927;SDS011;27616;51.420;6.788;2023-06-24T14:04:04;3.38;;;1.67;;
41927;SDS011;27616;51.420;6.788;2023-06-24T14:06:30;3.63;;;1.70;;
41927;SDS011;27616;51.420;6.788;2023-06-24T14:08:56;3.25;;;1.77;;
41927;SDS011;27616;51.420;6.788;2023-06-24T14:11:21;2.67;;;1.67;;
41927;SDS011;27616;51.420;6.788;2023-06-24T14:13:47;3.40;;;1.73;;
41927;SDS011;27616;51.420;6.788;2023-06-24T14:16:13;3.63;;;2.17;;
41927;SDS011;27616;51.420;6.788;2023-06-24T14:18:38;4.20;;;2.20;;
41927;SDS011;27616;51.420;6.788;2023-06-24T14:21:04;3.28;;;1.80;;
41927;SDS011;27616;51.420;6.788;2023-06-24T14:23:31;3.65;;;2.03;;
41927;SDS011;27616;51.420;6.788;2023-06-24T14:25:57;2.90;;;1.67;;
41927;SDS011;27616;51.420;6.788;2023-06-24T14:28:24;4.47;;;2.15;;
41927;SDS011;27616;51.420;6.788;2023-06-24T14:30:50;5.30;;;2.42;;
41927;SDS011;27616;51.420;6.788;2023-06-24T14:33:16;2.72;;;1.67;;
41927;SDS011;27616;51.420;6.788;2023-06-24T14:35:42;2.40;;;1.50;;
41927;SDS011;27616;51.420;6.788;2023-06-24T14:38:07;3.25;;;1.90;;
41927;SDS011;27616;51.420;6.788;2023-06-24T14:40:33;3.00;;;1.52;;
41927;SDS011;27616;51.420;6.788;2023-06-24T14:42:59;3.35;;;1.63;;
41927;SDS011;27616;51.420;6.788;2023-06-24T14:45:25;3.13;;;1.80;;
41927;SDS011;27616;51.420;6.788;2023-06-24T14:47:51;4.10;;;2.25;;
41927;SDS011;27616;51.420;6.788;2023-06-24T14:50:17;3.95;;;1.92;;
41927;SDS011;27616;51.420;6.788;2023-06-24T14:52:42;3.03;;;1.88;;
41927;SDS011;27616;51.420;6.788;2023-06-24T14:55:08;4.03;;;2.30;;
41927;SDS011;27616;51.420;6.788;2023-06-24T14:57:35;3.22;;;2.30;;
41927;SDS011;27616;51.420;6.788;2023-06-24T15:00:01;3.90;;;2.20;;
41927;SDS011;27616;51.420;6.788;2023-06-24T15:02:28;5.00;;;2.72;;
41927;SDS011;27616;51.420;6.788;2023-06-24T15:04:53;3.20;;;2.00;;
41927;SDS011;27616;51.420;6.788;2023-06-24T15:07:19;3.05;;;1.70;;
41927;SDS011;27616;51.420;6.788;2023-06-24T15:09:44;2.65;;;1.67;;
41927;SDS011;27616;51.420;6.788;2023-06-24T15:12:10;4.85;;;2.05;;
41927;SDS011;27616;51.420;6.788;2023-06-24T15:14:36;3.03;;;1.63;;